createdAt,value
2023-01-21T00:00:08.813Z,93.06
2023-01-21T00:02:35.242Z,92.65
2023-01-21T00:05:02.115Z,92.43
2023-01-21T00:07:28.527Z,92.53
2023-01-21T00:09:54.940Z,92.92
2023-01-21T00:12:21.350Z,93.35
2023-01-21T00:14:47.743Z,93.46
2023-01-21T00:17:14.202Z,93.23
2023-01-21T00:19:40.873Z,92.77
2023-01-21T00:22:07.429Z,93.07
2023-01-21T00:24:33.865Z,93.17
2023-01-21T00:27:00.303Z,92.90
2023-01-21T00:29:27.918Z,93.06
2023-01-21T00:31:54.347Z,92.88
2023-01-21T00:34:20.870Z,92.66
2023-01-21T00:36:47.376Z,92.85
2023-01-21T00:39:13.957Z,93.22
2023-01-21T00:41:40.560Z,93.73
2023-01-21T00:44:07.146Z,93.98
2023-01-21T00:46:33.751Z,94.13
2023-01-21T00:49:00.273Z,94.07
2023-01-21T00:51:27.909Z,94.01
2023-01-21T00:53:54.680Z,94.14
2023-01-21T00:56:21.162Z,93.61
2023-01-21T00:58:47.959Z,94.07
2023-01-21T01:01:17.895Z,93.89
2023-01-21T01:03:45.441Z,94.04
2023-01-21T01:06:15.609Z,93.86
2023-01-21T01:08:43.377Z,93.91
2023-01-21T01:11:10.843Z,93.91
2023-01-21T01:13:37.828Z,93.96
2023-01-21T01:16:05.235Z,93.97
2023-01-21T01:18:33.718Z,94.20
2023-01-21T01:21:00.869Z,94.01
2023-01-21T01:23:28.106Z,94.05
2023-01-21T01:26:05.055Z,94.18
2023-01-21T01:28:32.404Z,93.88
2023-01-21T01:30:59.809Z,93.78
2023-01-21T01:33:27.159Z,93.77
2023-01-21T01:35:53.647Z,94.12
2023-01-21T01:38:22.040Z,93.90
2023-01-21T01:40:50.657Z,94.21
2023-01-21T01:43:24.399Z,94.18
2023-01-21T01:45:52.200Z,94.66
2023-01-21T01:48:25.301Z,94.40
2023-01-21T01:50:51.888Z,94.69
2023-01-21T01:53:19.718Z,94.44
2023-01-21T01:55:48.632Z,95.24
2023-01-21T01:58:17.174Z,95.32
2023-01-21T02:00:43.827Z,95.07
2023-01-21T02:03:30.341Z,95.04
2023-01-21T02:05:56.824Z,95.05
2023-01-21T02:08:24.628Z,95.68
2023-01-21T02:10:51.442Z,95.90
2023-01-21T02:13:18.029Z,96.04
2023-01-21T02:15:53.379Z,96.35
2023-01-21T02:18:42.583Z,96.31
2023-01-21T02:21:11.997Z,96.17
2023-01-21T02:23:44.361Z,95.98
2023-01-21T02:26:30.155Z,96.64
2023-01-21T02:29:34.879Z,97.19
2023-01-21T02:32:20.573Z,96.90
2023-01-21T02:35:16.371Z,97.22
2023-01-21T02:37:51.827Z,97.25
2023-01-21T02:40:29.176Z,97.27
2023-01-21T02:43:15.811Z,97.58
2023-01-21T02:45:59.371Z,97.42
2023-01-21T02:48:39.393Z,97.67
2023-01-21T02:51:06.112Z,97.67
2023-01-21T02:53:35.162Z,97.61
2023-01-21T02:56:07.514Z,97.72
2023-01-21T02:58:39.911Z,98.03
2023-01-21T03:01:41.596Z,97.90
2023-01-21T03:04:37.698Z,98.20
2023-01-21T03:07:22.728Z,97.98
2023-01-21T03:09:49.519Z,97.99
2023-01-21T03:12:41.621Z,97.63
2023-01-21T03:15:46.025Z,98.06
2023-01-21T03:18:23.071Z,97.77
2023-01-21T03:20:56.303Z,97.90
2023-01-21T03:23:28.518Z,98.04
2023-01-21T03:25:57.303Z,98.19
2023-01-21T03:28:27.344Z,97.95
2023-01-21T03:31:04.848Z,98.44
2023-01-21T03:33:35.022Z,98.34
2023-01-21T03:36:08.356Z,98.79
2023-01-21T03:38:41.903Z,98.59
2023-01-21T03:41:14.511Z,98.54
2023-01-21T03:43:41.203Z,98.18
2023-01-21T03:46:38.154Z,98.82
2023-01-21T03:49:13.768Z,98.59
2023-01-21T03:51:46.179Z,98.82
2023-01-21T03:54:12.946Z,98.79
2023-01-21T03:56:39.371Z,99.16
2023-01-21T03:59:06.131Z,99.14
2023-01-21T04:01:32.580Z,99.38
2023-01-21T04:03:59.087Z,99.50
2023-01-21T04:06:25.535Z,99.20
2023-01-21T04:08:51.983Z,98.87
2023-01-21T04:11:18.440Z,99.07
2023-01-21T04:13:45.105Z,99.10
2023-01-21T04:16:11.648Z,99.17
2023-01-21T04:18:38.206Z,99.34
2023-01-21T04:21:05.021Z,99.75
2023-01-21T04:23:31.558Z,99.25
2023-01-21T04:25:58.042Z,99.46
2023-01-21T04:28:24.432Z,99.70
2023-01-21T04:30:50.905Z,99.38
2023-01-21T04:33:17.466Z,99.38
2023-01-21T04:35:43.976Z,99.78
2023-01-21T04:38:11.550Z,99.80
2023-01-21T04:40:38.160Z,99.50
2023-01-21T04:43:04.963Z,99.57
2023-01-21T04:45:31.444Z,99.47
2023-01-21T04:47:57.910Z,99.36
2023-01-21T04:50:24.407Z,99.68
2023-01-21T04:52:50.854Z,99.69
2023-01-21T04:55:17.294Z,99.56
2023-01-21T04:57:43.691Z,99.68
2023-01-21T05:00:10.800Z,99.60
2023-01-21T05:02:37.453Z,99.01
2023-01-21T05:05:04.864Z,98.65
2023-01-21T05:07:31.495Z,99.05
2023-01-21T05:09:57.987Z,99.23
2023-01-21T05:12:24.392Z,99.25
2023-01-21T05:14:54.626Z,99.41
2023-01-21T05:17:21.267Z,99.04
2023-01-21T05:19:48.571Z,99.31
2023-01-21T05:22:15.046Z,99.88
2023-01-21T05:24:41.481Z,99.47
2023-01-21T05:27:08.652Z,99.77
2023-01-21T05:29:35.167Z,99.96
2023-01-21T05:32:01.847Z,99.63
2023-01-21T05:34:28.365Z,99.90
2023-01-21T05:36:54.807Z,99.87
2023-01-21T05:39:21.207Z,99.88
2023-01-21T05:41:47.953Z,99.58
2023-01-21T05:44:17.379Z,99.77
2023-01-21T05:46:44.108Z,100.00
2023-01-21T05:49:10.748Z,99.88
2023-01-21T05:51:37.185Z,99.99
2023-01-21T05:54:04.020Z,100.00
2023-01-21T05:56:30.485Z,100.00
2023-01-21T05:58:56.888Z,100.00
2023-01-21T06:01:23.307Z,100.00
2023-01-21T06:03:49.875Z,100.00
2023-01-21T06:06:16.375Z,100.00
2023-01-21T06:08:42.975Z,99.79
2023-01-21T06:11:09.403Z,99.73
2023-01-21T06:13:35.911Z,99.97
2023-01-21T06:16:03.116Z,100.00
2023-01-21T06:18:29.578Z,100.00
2023-01-21T06:20:59.287Z,100.00
2023-01-21T06:23:26.112Z,100.00
2023-01-21T06:25:52.619Z,100.00
2023-01-21T06:28:19.036Z,100.00
2023-01-21T06:30:45.755Z,100.00
2023-01-21T06:33:12.231Z,100.00
2023-01-21T06:35:38.915Z,100.00
2023-01-21T06:38:05.472Z,100.00
2023-01-21T06:40:31.933Z,100.00
2023-01-21T06:42:58.461Z,100.00
2023-01-21T06:45:24.889Z,100.00
2023-01-21T06:47:51.296Z,100.00
2023-01-21T06:50:18.771Z,100.00
2023-01-21T06:52:47.552Z,100.00
2023-01-21T06:55:15.187Z,100.00
2023-01-21T06:57:43.498Z,100.00
2023-01-21T07:00:12.013Z,100.00
2023-01-21T07:02:38.919Z,100.00
2023-01-21T07:05:06.242Z,100.00
2023-01-21T07:07:32.751Z,100.00
2023-01-21T07:09:59.232Z,100.00
2023-01-21T07:12:25.672Z,100.00
2023-01-21T07:14:52.103Z,100.00
2023-01-21T07:17:19.134Z,100.00
2023-01-21T07:19:45.692Z,99.91
2023-01-21T07:22:12.139Z,100.00
2023-01-21T07:24:38.895Z,99.56
2023-01-21T07:27:06.331Z,99.80
2023-01-21T07:29:32.766Z,100.00
2023-01-21T07:31:59.288Z,100.00
2023-01-21T07:34:25.787Z,100.00
2023-01-21T07:36:52.157Z,100.00
2023-01-21T07:39:18.591Z,100.00
2023-01-21T07:41:45.113Z,100.00
2023-01-21T07:44:11.779Z,100.00
2023-01-21T07:46:38.508Z,100.00
2023-01-21T07:49:05.331Z,100.00
2023-01-21T07:51:31.873Z,100.00
2023-01-21T07:53:58.507Z,100.00
2023-01-21T07:56:26.724Z,100.00
2023-01-21T07:58:53.161Z,100.00
2023-01-21T08:01:19.666Z,100.00
2023-01-21T08:03:46.197Z,100.00
2023-01-21T08:06:12.808Z,100.00
2023-01-21T08:08:39.283Z,100.00
2023-01-21T08:11:05.786Z,100.00
2023-01-21T08:13:32.247Z,100.00
2023-01-21T08:15:58.862Z,100.00
2023-01-21T08:18:25.537Z,100.00
2023-01-21T08:20:58.920Z,100.00
2023-01-21T08:23:26.603Z,100.00
2023-01-21T08:25:53.968Z,100.00
2023-01-21T08:28:21.352Z,100.00
2023-01-21T08:30:48.208Z,100.00
2023-01-21T08:33:14.736Z,100.00
2023-01-21T08:35:41.409Z,100.00
2023-01-21T08:38:08.065Z,100.00
2023-01-21T08:40:34.576Z,100.00
2023-01-21T08:43:03.076Z,100.00
2023-01-21T08:45:29.756Z,100.00
2023-01-21T08:47:56.967Z,100.00
2023-01-21T08:50:24.011Z,100.00
2023-01-21T08:52:54.643Z,100.00
2023-01-21T08:55:24.883Z,100.00
2023-01-21T08:57:53.409Z,100.00
2023-01-21T09:00:20.845Z,100.00
2023-01-21T09:02:47.312Z,100.00
2023-01-21T09:05:13.729Z,100.00
2023-01-21T09:07:40.570Z,100.00
2023-01-21T09:10:07.541Z,100.00
2023-01-21T09:12:34.248Z,100.00
2023-01-21T09:15:00.668Z,100.00
2023-01-21T09:17:27.085Z,100.00
2023-01-21T09:19:55.484Z,100.00
2023-01-21T09:22:22.339Z,100.00
2023-01-21T09:24:48.752Z,100.00
2023-01-21T09:27:15.249Z,100.00
2023-01-21T09:29:41.920Z,100.00
2023-01-21T09:32:09.066Z,100.00
2023-01-21T09:34:35.980Z,100.00
2023-01-21T09:37:04.141Z,100.00
2023-01-21T09:39:30.656Z,100.00
2023-01-21T09:41:58.085Z,100.00
2023-01-21T09:44:40.063Z,100.00
2023-01-21T09:47:23.811Z,100.00
2023-01-21T09:49:58.566Z,100.00
2023-01-21T09:52:41.293Z,100.00
2023-01-21T09:55:16.776Z,100.00
2023-01-21T09:58:06.475Z,100.00
2023-01-21T10:00:35.647Z,100.00
2023-01-21T10:03:17.405Z,100.00
2023-01-21T10:05:53.066Z,100.00
2023-01-21T10:08:43.250Z,100.00
2023-01-21T10:11:21.995Z,100.00
2023-01-21T10:13:51.197Z,100.00
2023-01-21T10:16:29.290Z,100.00
2023-01-21T10:18:58.722Z,100.00
2023-01-21T10:21:33.387Z,100.00
2023-01-21T10:24:10.528Z,100.00
2023-01-21T10:26:36.936Z,100.00
2023-01-21T10:29:04.247Z,100.00
2023-01-21T10:31:39.448Z,100.00
2023-01-21T10:34:18.122Z,100.00
2023-01-21T10:36:53.992Z,100.00
2023-01-21T10:39:26.343Z,100.00
2023-01-21T10:42:08.345Z,100.00
2023-01-21T10:44:46.727Z,100.00
2023-01-21T10:47:42.103Z,100.00
2023-01-21T10:50:31.348Z,100.00
2023-01-21T10:53:29.078Z,100.00
2023-01-21T10:56:29.141Z,100.00
2023-01-21T10:59:22.391Z,100.00
2023-01-21T11:02:07.673Z,100.00
2023-01-21T11:04:36.419Z,100.00
2023-01-21T11:07:07.432Z,100.00
2023-01-21T11:09:41.804Z,100.00
2023-01-21T11:12:11.935Z,100.00
2023-01-21T11:14:38.491Z,100.00
2023-01-21T11:17:05.519Z,100.00
2023-01-21T11:19:32.151Z,100.00
2023-01-21T11:22:23.520Z,100.00
2023-01-21T11:24:51.764Z,100.00
2023-01-21T11:27:38.251Z,100.00
2023-01-21T11:30:25.965Z,100.00
2023-01-21T11:32:53.046Z,100.00
2023-01-21T11:35:23.125Z,99.99
2023-01-21T11:37:49.583Z,100.00
2023-01-21T11:40:24.935Z,100.00
2023-01-21T11:42:53.908Z,100.00
2023-01-21T11:45:36.813Z,99.31
2023-01-21T11:48:20.968Z,98.64
2023-01-21T11:50:47.489Z,98.40
2023-01-21T11:53:17.611Z,97.05
2023-01-21T11:55:45.990Z,96.63
2023-01-21T11:58:40.428Z,96.52
2023-01-21T12:01:11.056Z,96.43
2023-01-21T12:03:48.013Z,95.86
2023-01-21T12:06:23.430Z,96.66
2023-01-21T12:08:53.660Z,96.41
2023-01-21T12:11:23.039Z,96.28
2023-01-21T12:14:17.374Z,96.66
2023-01-21T12:17:16.145Z,96.46
2023-01-21T12:19:59.893Z,96.07
2023-01-21T12:23:00.365Z,95.58
2023-01-21T12:26:06.611Z,95.47
2023-01-21T12:29:11.825Z,95.33
2023-01-21T12:31:48.796Z,93.88
2023-01-21T12:34:21.272Z,93.98
2023-01-21T12:37:12.521Z,93.57
2023-01-21T12:39:42.286Z,92.49
2023-01-21T12:42:15.797Z,92.10
2023-01-21T12:44:50.000Z,91.00
2023-01-21T12:47:23.191Z,91.36
2023-01-21T12:50:05.405Z,91.38
2023-01-21T12:53:11.181Z,91.71
2023-01-21T12:56:05.610Z,91.62
2023-01-21T12:58:38.326Z,91.51
2023-01-21T13:01:11.800Z,91.00
2023-01-21T13:03:51.819Z,90.99
2023-01-21T13:06:53.519Z,91.10
2023-01-21T13:09:42.584Z,90.71
2023-01-21T13:12:18.448Z,91.27
2023-01-21T13:14:50.437Z,90.59
2023-01-21T13:17:29.433Z,89.87
2023-01-21T13:19:55.849Z,90.21
2023-01-21T13:22:37.424Z,90.36
2023-01-21T13:25:20.847Z,89.96
2023-01-21T13:28:00.129Z,88.83
2023-01-21T13:30:48.839Z,89.00
2023-01-21T13:33:24.772Z,89.18
2023-01-21T13:35:54.125Z,88.99
2023-01-21T13:38:49.015Z,87.91
2023-01-21T13:41:29.381Z,88.54
2023-01-21T13:44:08.293Z,87.78
2023-01-21T13:46:47.735Z,88.30
2023-01-21T13:49:14.079Z,88.56
2023-01-21T13:52:05.190Z,88.21
2023-01-21T13:54:56.662Z,88.23
2023-01-21T13:57:49.226Z,87.97
2023-01-21T14:00:21.566Z,87.14
2023-01-21T14:03:08.321Z,87.69
2023-01-21T14:05:40.871Z,87.14
2023-01-21T14:08:16.805Z,87.79
2023-01-21T14:10:52.068Z,87.45
2023-01-21T14:13:43.539Z,87.37
2023-01-21T14:16:40.821Z,88.16
2023-01-21T14:19:26.076Z,88.69
2023-01-21T14:22:03.355Z,88.19
2023-01-21T14:24:41.801Z,88.59
2023-01-21T14:27:26.565Z,87.93
2023-01-21T14:30:07.540Z,88.22
2023-01-21T14:32:41.320Z,88.45
2023-01-21T14:35:32.895Z,87.23
2023-01-21T14:38:44.338Z,87.58
2023-01-21T14:41:12.020Z,86.73
2023-01-21T14:43:40.402Z,87.42
2023-01-21T14:46:27.305Z,87.01
2023-01-21T14:49:00.412Z,87.27
2023-01-21T14:51:30.494Z,87.33
2023-01-21T14:54:01.256Z,87.24
2023-01-21T14:56:28.848Z,86.93
2023-01-21T14:59:02.640Z,86.96
2023-01-21T15:01:31.544Z,87.17
2023-01-21T15:04:02.671Z,87.57
2023-01-21T15:06:29.293Z,87.36
2023-01-21T15:08:59.248Z,87.43
2023-01-21T15:11:37.232Z,87.34
2023-01-21T15:14:25.483Z,87.59
2023-01-21T15:16:52.366Z,87.60
2023-01-21T15:19:20.654Z,87.60
2023-01-21T15:21:59.212Z,87.09
2023-01-21T15:24:31.489Z,87.92
2023-01-21T15:27:25.576Z,88.05
2023-01-21T15:29:55.552Z,87.92
2023-01-21T15:32:37.335Z,87.73
2023-01-21T15:35:14.708Z,88.54
2023-01-21T15:37:45.738Z,88.50
2023-01-21T15:40:25.271Z,88.42
2023-01-21T15:43:03.658Z,88.12
2023-01-21T15:45:42.782Z,88.49
2023-01-21T15:48:42.227Z,88.59
2023-01-21T15:51:24.630Z,88.35
2023-01-21T15:54:09.606Z,87.85
2023-01-21T15:56:50.834Z,88.27
2023-01-21T15:59:34.909Z,88.08
2023-01-21T16:02:24.401Z,88.16
2023-01-21T16:05:30.290Z,87.91
2023-01-21T16:08:14.365Z,88.29
2023-01-21T16:10:53.191Z,88.50
2023-01-21T16:13:38.009Z,88.94
2023-01-21T16:16:25.669Z,88.81
2023-01-21T16:19:00.324Z,88.39
2023-01-21T16:21:35.754Z,88.77
2023-01-21T16:24:25.037Z,88.96
2023-01-21T16:26:51.506Z,88.27
2023-01-21T16:29:17.908Z,88.60
2023-01-21T16:31:59.304Z,88.95
2023-01-21T16:34:31.833Z,88.74
2023-01-21T16:36:58.818Z,89.16
2023-01-21T16:39:25.785Z,89.02
2023-01-21T16:42:01.261Z,89.00
2023-01-21T16:44:28.540Z,89.16
2023-01-21T16:46:55.924Z,89.66
2023-01-21T16:49:22.365Z,89.31
2023-01-21T16:52:01.499Z,89.46
2023-01-21T16:54:33.220Z,89.99
2023-01-21T16:57:05.990Z,90.36
2023-01-21T16:59:44.861Z,90.35
2023-01-21T17:02:26.903Z,90.63
2023-01-21T17:04:58.051Z,90.74
2023-01-21T17:07:30.365Z,90.42
2023-01-21T17:10:16.253Z,90.86
2023-01-21T17:12:48.175Z,91.49
2023-01-21T17:15:38.636Z,91.73
2023-01-21T17:18:09.059Z,91.12
2023-01-21T17:20:43.670Z,91.26
2023-01-21T17:23:17.456Z,91.67
2023-01-21T17:25:49.354Z,92.09
2023-01-21T17:28:28.938Z,92.08
2023-01-21T17:31:10.157Z,92.39
2023-01-21T17:33:36.906Z,92.14
2023-01-21T17:36:11.833Z,91.89
2023-01-21T17:38:40.776Z,92.57
2023-01-21T17:41:09.775Z,92.62
2023-01-21T17:43:38.983Z,92.75
2023-01-21T17:46:06.659Z,92.64
2023-01-21T17:48:37.494Z,92.99
2023-01-21T17:51:07.532Z,92.50
2023-01-21T17:53:41.220Z,92.51
2023-01-21T17:56:08.057Z,92.18
2023-01-21T17:58:41.520Z,92.08
2023-01-21T18:01:09.020Z,92.08
2023-01-21T18:03:35.427Z,92.40
2023-01-21T18:06:03.386Z,91.87
2023-01-21T18:08:29.790Z,92.71
2023-01-21T18:10:56.245Z,92.47
2023-01-21T18:13:22.727Z,92.64
2023-01-21T18:15:51.589Z,92.61
2023-01-21T18:18:25.129Z,92.32
2023-01-21T18:20:51.882Z,92.40
2023-01-21T18:23:18.489Z,93.11
2023-01-21T18:25:52.055Z,93.32
2023-01-21T18:28:20.792Z,93.35
2023-01-21T18:30:47.953Z,92.92
2023-01-21T18:33:14.904Z,93.50
2023-01-21T18:35:47.163Z,93.46
2023-01-21T18:38:19.203Z,93.54
2023-01-21T18:40:45.948Z,93.80
2023-01-21T18:43:12.510Z,93.04
2023-01-21T18:45:39.324Z,93.05
2023-01-21T18:48:12.187Z,93.50
2023-01-21T18:50:38.785Z,94.03
2023-01-21T18:53:06.057Z,94.36
2023-01-21T18:55:32.559Z,93.48
2023-01-21T18:57:59.128Z,94.04
2023-01-21T19:00:32.626Z,93.38
2023-01-21T19:03:01.058Z,93.33
2023-01-21T19:05:30.796Z,92.55
2023-01-21T19:07:57.380Z,93.31
2023-01-21T19:10:23.807Z,93.12
2023-01-21T19:12:50.296Z,93.38
2023-01-21T19:15:22.959Z,93.84
2023-01-21T19:17:50.916Z,94.00
2023-01-21T19:20:20.302Z,93.78
2023-01-21T19:22:47.642Z,93.80
2023-01-21T19:25:14.830Z,94.28
2023-01-21T19:27:44.042Z,93.94
2023-01-21T19:30:27.759Z,93.80
2023-01-21T19:32:55.094Z,93.73
2023-01-21T19:35:28.494Z,94.30
2023-01-21T19:37:55.393Z,93.22
2023-01-21T19:40:25.181Z,93.69
2023-01-21T19:42:51.956Z,94.39
2023-01-21T19:45:19.375Z,93.84
2023-01-21T19:47:50.975Z,94.56
2023-01-21T19:50:23.011Z,94.23
2023-01-21T19:52:51.221Z,93.89
2023-01-21T19:55:23.361Z,93.96
2023-01-21T19:57:56.832Z,94.07
2023-01-21T20:00:32.289Z,94.38
2023-01-21T20:02:59.520Z,93.40
2023-01-21T20:05:27.370Z,93.43
2023-01-21T20:07:54.762Z,93.92
2023-01-21T20:10:24.927Z,94.22
2023-01-21T20:12:52.712Z,93.58
2023-01-21T20:15:22.624Z,93.71
2023-01-21T20:17:53.831Z,93.80
2023-01-21T20:20:22.941Z,94.06
2023-01-21T20:22:49.751Z,93.93
2023-01-21T20:25:24.918Z,94.04
2023-01-21T20:27:55.328Z,93.76
2023-01-21T20:30:25.173Z,93.98
2023-01-21T20:32:51.609Z,93.92
2023-01-21T20:35:20.127Z,94.24
2023-01-21T20:37:51.485Z,94.47
2023-01-21T20:40:27.621Z,94.80
2023-01-21T20:42:55.322Z,94.41
2023-01-21T20:45:30.594Z,94.24
2023-01-21T20:47:59.468Z,94.35
2023-01-21T20:50:31.458Z,94.38
2023-01-21T20:52:58.529Z,94.40
2023-01-21T20:55:27.740Z,94.79
2023-01-21T20:57:54.491Z,94.25
2023-01-21T21:00:30.991Z,93.75
2023-01-21T21:02:57.657Z,94.06
2023-01-21T21:05:26.092Z,93.24
2023-01-21T21:07:53.314Z,93.05
2023-01-21T21:10:23.294Z,91.94
2023-01-21T21:12:50.120Z,92.03
2023-01-21T21:15:18.009Z,91.52
2023-01-21T21:17:46.899Z,91.90
2023-01-21T21:20:24.865Z,92.51
2023-01-21T21:22:51.635Z,91.68
2023-01-21T21:25:21.074Z,91.49
2023-01-21T21:27:48.332Z,91.75
2023-01-21T21:30:22.968Z,92.05
2023-01-21T21:32:50.201Z,91.75
2023-01-21T21:35:22.871Z,92.06
2023-01-21T21:37:50.829Z,91.67
2023-01-21T21:40:22.255Z,91.32
2023-01-21T21:43:07.855Z,90.91
2023-01-21T21:45:36.663Z,90.77
2023-01-21T21:48:22.779Z,90.83
2023-01-21T21:50:58.106Z,90.29
2023-01-21T21:53:24.683Z,90.76
2023-01-21T21:55:51.143Z,91.34
2023-01-21T21:58:17.580Z,90.64
2023-01-21T22:00:44.732Z,90.62
2023-01-21T22:03:11.707Z,90.37
2023-01-21T22:05:38.114Z,90.49
2023-01-21T22:08:04.766Z,90.71
2023-01-21T22:10:31.200Z,90.85
2023-01-21T22:12:57.633Z,90.05
2023-01-21T22:15:24.030Z,90.24
2023-01-21T22:17:50.478Z,89.81
2023-01-21T22:20:17.219Z,89.92
2023-01-21T22:22:43.823Z,90.24
2023-01-21T22:25:11.756Z,90.02
2023-01-21T22:27:38.270Z,89.76
2023-01-21T22:30:05.547Z,90.14
2023-01-21T22:32:32.107Z,90.33
2023-01-21T22:34:58.511Z,90.85
2023-01-21T22:37:24.955Z,90.69
2023-01-21T22:39:51.417Z,90.47
2023-01-21T22:42:17.809Z,90.25
2023-01-21T22:44:44.207Z,89.95
2023-01-21T22:47:10.743Z,89.89
2023-01-21T22:49:37.182Z,90.85
2023-01-21T22:52:03.737Z,90.64
2023-01-21T22:54:30.185Z,90.20
2023-01-21T22:56:56.574Z,90.69
2023-01-21T22:59:23.027Z,90.65
2023-01-21T23:01:50.903Z,90.54
2023-01-21T23:04:17.723Z,90.37
2023-01-21T23:06:44.733Z,90.42
2023-01-21T23:09:15.513Z,91.12
2023-01-21T23:11:42.659Z,90.89
2023-01-21T23:14:10.073Z,91.04
2023-01-21T23:16:37.314Z,90.86
2023-01-21T23:19:03.890Z,90.27
2023-01-21T23:21:30.480Z,90.83
2023-01-21T23:23:56.885Z,90.66
2023-01-21T23:26:23.345Z,90.93
2023-01-21T23:28:54.310Z,91.09
2023-01-21T23:31:20.822Z,91.16
2023-01-21T23:33:51.950Z,92.04
2023-01-21T23:36:19.173Z,92.86
2023-01-21T23:38:45.976Z,94.33
2023-01-21T23:41:16.899Z,94.84
2023-01-21T23:43:43.469Z,96.07
2023-01-21T23:46:16.694Z,96.50
2023-01-21T23:48:43.273Z,97.36
2023-01-21T23:51:13.038Z,97.60
2023-01-21T23:53:39.696Z,98.17
2023-01-21T23:56:13.038Z,98.35
2023-01-21T23:58:39.689Z,99.07
